sensor_id;sensor_type;location;lat;lon;timestamp;P1;durP1;ratioP1;P2;durP2;ratioP2
58338;SDS011;68636;52.704;6.536;2023-09-30T00:01:49;39.70;;;6.93;;
58338;SDS011;68636;52.704;6.536;2023-09-30T00:04:17;37.45;;;6.25;;
58338;SDS011;68636;52.704;6.536;2023-09-30T00:06:43;31.85;;;6.53;;
58338;SDS011;68636;52.704;6.536;2023-09-30T00:09:09;35.83;;;6.53;;
58338;SDS011;68636;52.704;6.536;2023-09-30T00:14:03;37.90;;;5.90;;
58338;SDS011;68636;52.704;6.536;2023-09-30T00:16:29;31.70;;;5.10;;
58338;SDS011;68636;52.704;6.536;2023-09-30T00:18:56;29.80;;;5.72;;
58338;SDS011;68636;52.704;6.536;2023-09-30T00:21:23;28.50;;;4.97;;
58338;SDS011;68636;52.704;6.536;2023-09-30T00:23:49;43.67;;;6.33;;
58338;SDS011;68636;52.704;6.536;2023-09-30T00:26:15;35.00;;;5.53;;
58338;SDS011;68636;52.704;6.536;2023-09-30T00:28:41;34.38;;;5.93;;
58338;SDS011;68636;52.704;6.536;2023-09-30T00:31:08;27.25;;;4.82;;
58338;SDS011;68636;52.704;6.536;2023-09-30T00:33:35;34.50;;;5.70;;
58338;SDS011;68636;52.704;6.536;2023-09-30T00:36:05;41.97;;;5.65;;
58338;SDS011;68636;52.704;6.536;2023-09-30T00:38:31;29.50;;;5.63;;
58338;SDS011;68636;52.704;6.536;2023-09-30T00:40:57;38.95;;;6.18;;
58338;SDS011;68636;52.704;6.536;2023-09-30T00:43:23;31.52;;;5.70;;
58338;SDS011;68636;52.704;6.536;2023-09-30T00:46:02;37.67;;;7.15;;
58338;SDS011;68636;52.704;6.536;2023-09-30T00:48:31;39.03;;;6.65;;
58338;SDS011;68636;52.704;6.536;2023-09-30T00:53:23;30.57;;;5.77;;
58338;SDS011;68636;52.704;6.536;2023-09-30T00:55:49;34.30;;;5.67;;
58338;SDS011;68636;52.704;6.536;2023-09-30T00:58:16;44.38;;;6.50;;
58338;SDS011;68636;52.704;6.536;2023-09-30T01:00:42;38.60;;;6.25;;
58338;SDS011;68636;52.704;6.536;2023-09-30T01:03:08;37.63;;;5.60;;
58338;SDS011;68636;52.704;6.536;2023-09-30T01:05:35;37.88;;;5.72;;
58338;SDS011;68636;52.704;6.536;2023-09-30T01:08:02;38.65;;;6.85;;
58338;SDS011;68636;52.704;6.536;2023-09-30T01:10:28;35.20;;;6.53;;
58338;SDS011;68636;52.704;6.536;2023-09-30T01:12:54;29.52;;;6.13;;
58338;SDS011;68636;52.704;6.536;2023-09-30T01:15:20;38.03;;;6.18;;
58338;SDS011;68636;52.704;6.536;2023-09-30T01:17:46;31.02;;;6.40;;
58338;SDS011;68636;52.704;6.536;2023-09-30T01:20:12;35.70;;;6.22;;
58338;SDS011;68636;52.704;6.536;2023-09-30T01:22:47;40.55;;;6.57;;
58338;SDS011;68636;52.704;6.536;2023-09-30T01:25:13;41.50;;;7.20;;
58338;SDS011;68636;52.704;6.536;2023-09-30T01:27:39;37.05;;;6.70;;
58338;SDS011;68636;52.704;6.536;2023-09-30T01:30:05;35.50;;;6.93;;
58338;SDS011;68636;52.704;6.536;2023-09-30T01:32:36;39.58;;;7.03;;
58338;SDS011;68636;52.704;6.536;2023-09-30T01:35:02;34.38;;;7.22;;
58338;SDS011;68636;52.704;6.536;2023-09-30T01:37:28;37.80;;;7.50;;
58338;SDS011;68636;52.704;6.536;2023-09-30T01:39:54;35.53;;;6.95;;
58338;SDS011;68636;52.704;6.536;2023-09-30T01:42:20;35.80;;;7.57;;
58338;SDS011;68636;52.704;6.536;2023-09-30T01:44:47;34.37;;;8.60;;
58338;SDS011;68636;52.704;6.536;2023-09-30T01:47:13;37.22;;;7.15;;
58338;SDS011;68636;52.704;6.536;2023-09-30T01:49:39;30.15;;;8.23;;
58338;SDS011;68636;52.704;6.536;2023-09-30T01:52:05;34.97;;;7.45;;
58338;SDS011;68636;52.704;6.536;2023-09-30T01:54:31;36.83;;;7.47;;
58338;SDS011;68636;52.704;6.536;2023-09-30T01:56:57;39.92;;;8.10;;
58338;SDS011;68636;52.704;6.536;2023-09-30T01:59:24;31.50;;;7.47;;
58338;SDS011;68636;52.704;6.536;2023-09-30T02:01:50;35.57;;;7.77;;
58338;SDS011;68636;52.704;6.536;2023-09-30T02:04:16;41.47;;;7.57;;
58338;SDS011;68636;52.704;6.536;2023-09-30T02:06:42;51.17;;;8.65;;
58338;SDS011;68636;52.704;6.536;2023-09-30T02:09:08;39.20;;;7.68;;
58338;SDS011;68636;52.704;6.536;2023-09-30T02:11:35;36.88;;;7.78;;
58338;SDS011;68636;52.704;6.536;2023-09-30T02:14:02;38.40;;;7.90;;
58338;SDS011;68636;52.704;6.536;2023-09-30T02:16:30;36.50;;;7.68;;
58338;SDS011;68636;52.704;6.536;2023-09-30T02:18:57;46.70;;;8.68;;
58338;SDS011;68636;52.704;6.536;2023-09-30T02:21:23;34.00;;;8.07;;
58338;SDS011;68636;52.704;6.536;2023-09-30T02:23:49;42.47;;;8.55;;
58338;SDS011;68636;52.704;6.536;2023-09-30T02:26:20;44.17;;;8.85;;
58338;SDS011;68636;52.704;6.536;2023-09-30T02:28:46;33.97;;;8.20;;
58338;SDS011;68636;52.704;6.536;2023-09-30T02:31:12;45.37;;;9.83;;
58338;SDS011;68636;52.704;6.536;2023-09-30T02:33:38;46.50;;;8.88;;
58338;SDS011;68636;52.704;6.536;2023-09-30T02:36:08;33.90;;;7.63;;
58338;SDS011;68636;52.704;6.536;2023-09-30T02:38:34;40.33;;;8.80;;
58338;SDS011;68636;52.704;6.536;2023-09-30T02:41:04;42.30;;;8.85;;
58338;SDS011;68636;52.704;6.536;2023-09-30T02:43:30;46.03;;;8.27;;
58338;SDS011;68636;52.704;6.536;2023-09-30T02:48:23;42.10;;;7.57;;
58338;SDS011;68636;52.704;6.536;2023-09-30T02:50:49;39.40;;;8.02;;
58338;SDS011;68636;52.704;6.536;2023-09-30T02:53:15;43.30;;;8.07;;
58338;SDS011;68636;52.704;6.536;2023-09-30T02:55:41;40.95;;;7.82;;
58338;SDS011;68636;52.704;6.536;2023-09-30T02:58:08;44.93;;;8.50;;
58338;SDS011;68636;52.704;6.536;2023-09-30T03:00:35;36.40;;;9.13;;
58338;SDS011;68636;52.704;6.536;2023-09-30T03:03:03;37.90;;;8.15;;
58338;SDS011;68636;52.704;6.536;2023-09-30T03:05:29;43.50;;;8.70;;
58338;SDS011;68636;52.704;6.536;2023-09-30T03:07:58;43.80;;;8.40;;
58338;SDS011;68636;52.704;6.536;2023-09-30T03:10:25;37.38;;;8.85;;
58338;SDS011;68636;52.704;6.536;2023-09-30T03:12:54;38.33;;;8.40;;
58338;SDS011;68636;52.704;6.536;2023-09-30T03:15:21;42.83;;;8.55;;
58338;SDS011;68636;52.704;6.536;2023-09-30T03:17:48;46.88;;;9.10;;
58338;SDS011;68636;52.704;6.536;2023-09-30T03:20:14;36.03;;;8.27;;
58338;SDS011;68636;52.704;6.536;2023-09-30T03:22:44;42.75;;;8.77;;
58338;SDS011;68636;52.704;6.536;2023-09-30T03:25:14;47.90;;;10.05;;
58338;SDS011;68636;52.704;6.536;2023-09-30T03:27:43;42.47;;;8.98;;
58338;SDS011;68636;52.704;6.536;2023-09-30T03:30:09;43.90;;;10.18;;
58338;SDS011;68636;52.704;6.536;2023-09-30T03:32:36;36.50;;;9.18;;
58338;SDS011;68636;52.704;6.536;2023-09-30T03:35:07;45.45;;;10.07;;
58338;SDS011;68636;52.704;6.536;2023-09-30T03:37:36;47.70;;;9.52;;
58338;SDS011;68636;52.704;6.536;2023-09-30T03:40:02;52.50;;;9.40;;
58338;SDS011;68636;52.704;6.536;2023-09-30T03:42:44;47.63;;;10.10;;
58338;SDS011;68636;52.704;6.536;2023-09-30T03:45:10;48.67;;;9.70;;
58338;SDS011;68636;52.704;6.536;2023-09-30T03:47:37;39.58;;;9.50;;
58338;SDS011;68636;52.704;6.536;2023-09-30T03:50:04;38.28;;;9.25;;
58338;SDS011;68636;52.704;6.536;2023-09-30T03:52:32;47.92;;;10.20;;
58338;SDS011;68636;52.704;6.536;2023-09-30T03:54:59;45.60;;;9.52;;
58338;SDS011;68636;52.704;6.536;2023-09-30T03:57:26;44.45;;;10.23;;
58338;SDS011;68636;52.704;6.536;2023-09-30T03:59:53;57.25;;;10.30;;
58338;SDS011;68636;52.704;6.536;2023-09-30T04:02:19;43.58;;;10.18;;
58338;SDS011;68636;52.704;6.536;2023-09-30T04:04:45;40.45;;;10.70;;
58338;SDS011;68636;52.704;6.536;2023-09-30T04:07:11;40.90;;;10.07;;
58338;SDS011;68636;52.704;6.536;2023-09-30T04:09:38;41.42;;;10.15;;
58338;SDS011;68636;52.704;6.536;2023-09-30T04:12:04;43.63;;;9.40;;
58338;SDS011;68636;52.704;6.536;2023-09-30T04:14:31;50.17;;;10.27;;
58338;SDS011;68636;52.704;6.536;2023-09-30T04:16:57;41.08;;;10.57;;
58338;SDS011;68636;52.704;6.536;2023-09-30T04:19:23;37.15;;;9.98;;
58338;SDS011;68636;52.704;6.536;2023-09-30T04:21:49;45.22;;;11.23;;
58338;SDS011;68636;52.704;6.536;2023-09-30T04:24:15;43.97;;;10.40;;
58338;SDS011;68636;52.704;6.536;2023-09-30T04:26:44;45.35;;;10.85;;
58338;SDS011;68636;52.704;6.536;2023-09-30T04:29:11;42.38;;;10.63;;
58338;SDS011;68636;52.704;6.536;2023-09-30T04:31:37;45.00;;;11.32;;
58338;SDS011;68636;52.704;6.536;2023-09-30T04:34:04;43.40;;;11.25;;
58338;SDS011;68636;52.704;6.536;2023-09-30T04:36:31;42.60;;;11.80;;
58338;SDS011;68636;52.704;6.536;2023-09-30T04:39:00;53.65;;;11.50;;
58338;SDS011;68636;52.704;6.536;2023-09-30T04:41:27;48.75;;;12.75;;
58338;SDS011;68636;52.704;6.536;2023-09-30T04:43:53;44.33;;;11.45;;
58338;SDS011;68636;52.704;6.536;2023-09-30T04:46:19;44.20;;;12.15;;
58338;SDS011;68636;52.704;6.536;2023-09-30T04:48:48;52.58;;;12.82;;
58338;SDS011;68636;52.704;6.536;2023-09-30T04:51:17;49.50;;;12.48;;
58338;SDS011;68636;52.704;6.536;2023-09-30T04:53:46;50.75;;;13.27;;
58338;SDS011;68636;52.704;6.536;2023-09-30T04:56:13;47.75;;;12.95;;
58338;SDS011;68636;52.704;6.536;2023-09-30T04:58:39;47.22;;;12.85;;
58338;SDS011;68636;52.704;6.536;2023-09-30T05:01:05;45.57;;;14.13;;
58338;SDS011;68636;52.704;6.536;2023-09-30T05:03:34;59.20;;;13.57;;
58338;SDS011;68636;52.704;6.536;2023-09-30T05:06:00;56.08;;;13.25;;
58338;SDS011;68636;52.704;6.536;2023-09-30T05:10:53;49.87;;;13.90;;
58338;SDS011;68636;52.704;6.536;2023-09-30T05:13:21;50.53;;;13.20;;
58338;SDS011;68636;52.704;6.536;2023-09-30T05:15:48;43.10;;;13.45;;
58338;SDS011;68636;52.704;6.536;2023-09-30T05:18:16;42.05;;;13.40;;
58338;SDS011;68636;52.704;6.536;2023-09-30T05:23:09;51.70;;;13.50;;
58338;SDS011;68636;52.704;6.536;2023-09-30T05:25:38;61.50;;;15.23;;
58338;SDS011;68636;52.704;6.536;2023-09-30T05:28:05;56.05;;;15.73;;
58338;SDS011;68636;52.704;6.536;2023-09-30T05:30:34;58.22;;;16.52;;
58338;SDS011;68636;52.704;6.536;2023-09-30T05:33:01;50.72;;;14.38;;
58338;SDS011;68636;52.704;6.536;2023-09-30T05:35:28;60.50;;;15.55;;
58338;SDS011;68636;52.704;6.536;2023-09-30T05:37:55;57.80;;;14.13;;
58338;SDS011;68636;52.704;6.536;2023-09-30T05:40:21;55.50;;;14.38;;
58338;SDS011;68636;52.704;6.536;2023-09-30T05:42:48;58.00;;;15.55;;
58338;SDS011;68636;52.704;6.536;2023-09-30T05:45:15;60.08;;;15.07;;
58338;SDS011;68636;52.704;6.536;2023-09-30T05:47:41;59.63;;;16.33;;
58338;SDS011;68636;52.704;6.536;2023-09-30T05:50:07;56.35;;;16.02;;
58338;SDS011;68636;52.704;6.536;2023-09-30T05:52:34;53.97;;;16.73;;
58338;SDS011;68636;52.704;6.536;2023-09-30T05:55:01;62.57;;;16.33;;
58338;SDS011;68636;52.704;6.536;2023-09-30T05:57:27;53.72;;;15.63;;
58338;SDS011;68636;52.704;6.536;2023-09-30T05:59:54;62.83;;;16.58;;
58338;SDS011;68636;52.704;6.536;2023-09-30T06:02:20;58.05;;;16.17;;
58338;SDS011;68636;52.704;6.536;2023-09-30T06:04:46;62.00;;;16.52;;
58338;SDS011;68636;52.704;6.536;2023-09-30T06:07:12;61.60;;;15.95;;
58338;SDS011;68636;52.704;6.536;2023-09-30T06:09:38;72.50;;;17.83;;
58338;SDS011;68636;52.704;6.536;2023-09-30T06:12:04;66.18;;;18.02;;
58338;SDS011;68636;52.704;6.536;2023-09-30T06:14:32;67.22;;;18.15;;
58338;SDS011;68636;52.704;6.536;2023-09-30T06:16:58;62.80;;;17.10;;
58338;SDS011;68636;52.704;6.536;2023-09-30T06:19:24;65.80;;;16.90;;
58338;SDS011;68636;52.704;6.536;2023-09-30T06:21:51;58.75;;;16.92;;
58338;SDS011;68636;52.704;6.536;2023-09-30T06:24:17;68.47;;;18.15;;
58338;SDS011;68636;52.704;6.536;2023-09-30T06:26:46;57.60;;;17.83;;
58338;SDS011;68636;52.704;6.536;2023-09-30T06:31:40;58.60;;;16.05;;
58338;SDS011;68636;52.704;6.536;2023-09-30T06:34:06;64.63;;;18.10;;
58338;SDS011;68636;52.704;6.536;2023-09-30T06:36:32;72.97;;;18.02;;
58338;SDS011;68636;52.704;6.536;2023-09-30T06:38:58;63.45;;;18.00;;
58338;SDS011;68636;52.704;6.536;2023-09-30T06:41:24;61.20;;;18.15;;
58338;SDS011;68636;52.704;6.536;2023-09-30T06:43:50;58.30;;;17.50;;
58338;SDS011;68636;52.704;6.536;2023-09-30T06:46:17;58.17;;;16.77;;
58338;SDS011;68636;52.704;6.536;2023-09-30T06:48:43;61.87;;;17.50;;
58338;SDS011;68636;52.704;6.536;2023-09-30T06:51:14;64.10;;;17.63;;
58338;SDS011;68636;52.704;6.536;2023-09-30T06:53:41;77.68;;;18.75;;
58338;SDS011;68636;52.704;6.536;2023-09-30T06:56:07;68.05;;;20.42;;
58338;SDS011;68636;52.704;6.536;2023-09-30T06:58:33;66.20;;;18.70;;
58338;SDS011;68636;52.704;6.536;2023-09-30T07:01:00;67.60;;;18.50;;
58338;SDS011;68636;52.704;6.536;2023-09-30T07:03:26;65.53;;;19.03;;
58338;SDS011;68636;52.704;6.536;2023-09-30T07:05:52;67.10;;;19.25;;
58338;SDS011;68636;52.704;6.536;2023-09-30T07:08:19;73.28;;;19.33;;
58338;SDS011;68636;52.704;6.536;2023-09-30T07:10:48;68.63;;;20.00;;
58338;SDS011;68636;52.704;6.536;2023-09-30T07:13:15;68.28;;;19.25;;
58338;SDS011;68636;52.704;6.536;2023-09-30T07:15:42;66.60;;;20.23;;
58338;SDS011;68636;52.704;6.536;2023-09-30T07:18:09;72.68;;;21.65;;
58338;SDS011;68636;52.704;6.536;2023-09-30T07:20:36;73.00;;;21.30;;
58338;SDS011;68636;52.704;6.536;2023-09-30T07:23:02;73.43;;;21.02;;
58338;SDS011;68636;52.704;6.536;2023-09-30T07:25:28;71.43;;;22.67;;
58338;SDS011;68636;52.704;6.536;2023-09-30T07:27:57;75.32;;;21.60;;
58338;SDS011;68636;52.704;6.536;2023-09-30T07:30:23;69.72;;;20.45;;
58338;SDS011;68636;52.704;6.536;2023-09-30T07:32:49;73.03;;;21.48;;
58338;SDS011;68636;52.704;6.536;2023-09-30T07:37:43;84.95;;;21.48;;
58338;SDS011;68636;52.704;6.536;2023-09-30T07:40:09;71.03;;;20.70;;
58338;SDS011;68636;52.704;6.536;2023-09-30T07:42:35;73.03;;;19.33;;
58338;SDS011;68636;52.704;6.536;2023-09-30T07:45:02;76.93;;;22.27;;
58338;SDS011;68636;52.704;6.536;2023-09-30T07:47:31;67.88;;;20.90;;
58338;SDS011;68636;52.704;6.536;2023-09-30T07:49:59;80.15;;;23.10;;
58338;SDS011;68636;52.704;6.536;2023-09-30T07:52:27;77.63;;;22.05;;
58338;SDS011;68636;52.704;6.536;2023-09-30T07:54:53;74.63;;;21.80;;
58338;SDS011;68636;52.704;6.536;2023-09-30T07:57:19;73.03;;;21.73;;
58338;SDS011;68636;52.704;6.536;2023-09-30T07:59:45;71.50;;;21.77;;
58338;SDS011;68636;52.704;6.536;2023-09-30T08:02:11;77.72;;;22.63;;
58338;SDS011;68636;52.704;6.536;2023-09-30T08:04:37;80.20;;;22.70;;
58338;SDS011;68636;52.704;6.536;2023-09-30T08:07:03;76.03;;;20.98;;
58338;SDS011;68636;52.704;6.536;2023-09-30T08:09:29;79.28;;;21.92;;
58338;SDS011;68636;52.704;6.536;2023-09-30T08:11:56;73.38;;;22.65;;
58338;SDS011;68636;52.704;6.536;2023-09-30T08:14:22;82.55;;;23.27;;
58338;SDS011;68636;52.704;6.536;2023-09-30T08:16:48;78.22;;;22.08;;
58338;SDS011;68636;52.704;6.536;2023-09-30T08:19:14;75.40;;;22.05;;
58338;SDS011;68636;52.704;6.536;2023-09-30T08:21:40;72.05;;;21.67;;
58338;SDS011;68636;52.704;6.536;2023-09-30T08:24:06;83.95;;;22.67;;
58338;SDS011;68636;52.704;6.536;2023-09-30T08:26:33;83.30;;;22.58;;
58338;SDS011;68636;52.704;6.536;2023-09-30T08:29:00;78.13;;;24.23;;
58338;SDS011;68636;52.704;6.536;2023-09-30T08:31:27;88.05;;;22.98;;
58338;SDS011;68636;52.704;6.536;2023-09-30T08:33:54;80.28;;;23.85;;
58338;SDS011;68636;52.704;6.536;2023-09-30T08:36:20;79.88;;;22.00;;
58338;SDS011;68636;52.704;6.536;2023-09-30T08:38:46;84.27;;;22.40;;
58338;SDS011;68636;52.704;6.536;2023-09-30T08:41:15;89.80;;;24.20;;
58338;SDS011;68636;52.704;6.536;2023-09-30T08:43:51;80.50;;;24.60;;
58338;SDS011;68636;52.704;6.536;2023-09-30T08:46:18;81.60;;;23.67;;
58338;SDS011;68636;52.704;6.536;2023-09-30T08:48:45;77.30;;;21.07;;
58338;SDS011;68636;52.704;6.536;2023-09-30T08:51:12;78.20;;;22.45;;
58338;SDS011;68636;52.704;6.536;2023-09-30T08:53:38;66.15;;;20.55;;
58338;SDS011;68636;52.704;6.536;2023-09-30T08:56:05;80.45;;;22.55;;
58338;SDS011;68636;52.704;6.536;2023-09-30T08:58:35;74.50;;;22.63;;
58338;SDS011;68636;52.704;6.536;2023-09-30T09:03:28;79.72;;;22.10;;
58338;SDS011;68636;52.704;6.536;2023-09-30T09:05:54;72.00;;;22.03;;
58338;SDS011;68636;52.704;6.536;2023-09-30T09:08:21;73.32;;;22.17;;
58338;SDS011;68636;52.704;6.536;2023-09-30T09:10:55;75.47;;;23.23;;
58338;SDS011;68636;52.704;6.536;2023-09-30T09:13:22;73.90;;;21.65;;
58338;SDS011;68636;52.704;6.536;2023-09-30T09:15:48;74.95;;;21.90;;
58338;SDS011;68636;52.704;6.536;2023-09-30T09:18:30;76.03;;;21.57;;
58338;SDS011;68636;52.704;6.536;2023-09-30T09:21:10;68.85;;;20.98;;
58338;SDS011;68636;52.704;6.536;2023-09-30T09:23:40;69.68;;;21.00;;
58338;SDS011;68636;52.704;6.536;2023-09-30T09:26:07;65.25;;;20.83;;
58338;SDS011;68636;52.704;6.536;2023-09-30T09:28:34;67.30;;;21.60;;
58338;SDS011;68636;52.704;6.536;2023-09-30T09:33:48;66.60;;;21.67;;
58338;SDS011;68636;52.704;6.536;2023-09-30T09:36:14;74.10;;;21.40;;
58338;SDS011;68636;52.704;6.536;2023-09-30T09:38:50;66.40;;;20.67;;
58338;SDS011;68636;52.704;6.536;2023-09-30T09:41:19;67.50;;;22.65;;
58338;SDS011;68636;52.704;6.536;2023-09-30T09:43:49;69.70;;;21.80;;
58338;SDS011;68636;52.704;6.536;2023-09-30T09:46:18;72.28;;;21.55;;
58338;SDS011;68636;52.704;6.536;2023-09-30T09:48:45;69.05;;;21.70;;
58338;SDS011;68636;52.704;6.536;2023-09-30T09:51:12;57.15;;;18.42;;
58338;SDS011;68636;52.704;6.536;2023-09-30T09:53:40;56.72;;;19.13;;
58338;SDS011;68636;52.704;6.536;2023-09-30T09:56:09;63.42;;;19.90;;
58338;SDS011;68636;52.704;6.536;2023-09-30T09:58:37;71.93;;;20.23;;
58338;SDS011;68636;52.704;6.536;2023-09-30T10:03:30;54.95;;;15.40;;
58338;SDS011;68636;52.704;6.536;2023-09-30T10:05:57;57.40;;;17.25;;
58338;SDS011;68636;52.704;6.536;2023-09-30T10:08:28;52.35;;;16.23;;
58338;SDS011;68636;52.704;6.536;2023-09-30T10:10:55;53.63;;;15.90;;
58338;SDS011;68636;52.704;6.536;2023-09-30T10:14:07;51.33;;;15.55;;
58338;SDS011;68636;52.704;6.536;2023-09-30T10:19:21;52.38;;;13.85;;
58338;SDS011;68636;52.704;6.536;2023-09-30T10:24:32;48.13;;;11.90;;
58338;SDS011;68636;52.704;6.536;2023-09-30T10:29:44;35.20;;;9.83;;
58338;SDS011;68636;52.704;6.536;2023-09-30T10:32:10;38.97;;;11.83;;
58338;SDS011;68636;52.704;6.536;2023-09-30T10:34:36;39.03;;;10.73;;
58338;SDS011;68636;52.704;6.536;2023-09-30T10:45:05;29.13;;;7.43;;
58338;SDS011;68636;52.704;6.536;2023-09-30T10:47:35;28.98;;;7.60;;
58338;SDS011;68636;52.704;6.536;2023-09-30T10:50:01;28.15;;;7.28;;
58338;SDS011;68636;52.704;6.536;2023-09-30T10:52:29;39.17;;;7.85;;
58338;SDS011;68636;52.704;6.536;2023-09-30T10:54:56;29.83;;;4.90;;
58338;SDS011;68636;52.704;6.536;2023-09-30T10:57:27;28.98;;;4.60;;
58338;SDS011;68636;52.704;6.536;2023-09-30T11:00:09;30.85;;;6.38;;
58338;SDS011;68636;52.704;6.536;2023-09-30T11:02:47;29.00;;;4.00;;
58338;SDS011;68636;52.704;6.536;2023-09-30T11:05:13;23.15;;;3.42;;
58338;SDS011;68636;52.704;6.536;2023-09-30T11:07:39;20.45;;;3.10;;
58338;SDS011;68636;52.704;6.536;2023-09-30T11:10:07;26.98;;;3.25;;
58338;SDS011;68636;52.704;6.536;2023-09-30T11:12:33;16.58;;;3.20;;
58338;SDS011;68636;52.704;6.536;2023-09-30T11:15:02;24.43;;;3.27;;
58338;SDS011;68636;52.704;6.536;2023-09-30T11:17:29;22.77;;;3.20;;
58338;SDS011;68636;52.704;6.536;2023-09-30T11:19:55;23.58;;;2.92;;
58338;SDS011;68636;52.704;6.536;2023-09-30T11:22:21;17.27;;;2.70;;
58338;SDS011;68636;52.704;6.536;2023-09-30T11:24:47;24.25;;;2.97;;
58338;SDS011;68636;52.704;6.536;2023-09-30T11:27:13;15.93;;;1.85;;
58338;SDS011;68636;52.704;6.536;2023-09-30T11:29:49;20.70;;;2.53;;
58338;SDS011;68636;52.704;6.536;2023-09-30T11:32:25;27.45;;;4.30;;
58338;SDS011;68636;52.704;6.536;2023-09-30T11:34:52;18.35;;;3.17;;
58338;SDS011;68636;52.704;6.536;2023-09-30T11:37:18;20.25;;;2.10;;
58338;SDS011;68636;52.704;6.536;2023-09-30T11:39:44;21.38;;;2.50;;
58338;SDS011;68636;52.704;6.536;2023-09-30T11:42:17;24.30;;;2.90;;
58338;SDS011;68636;52.704;6.536;2023-09-30T11:44:45;16.67;;;2.97;;
58338;SDS011;68636;52.704;6.536;2023-09-30T11:47:15;25.55;;;2.85;;
58338;SDS011;68636;52.704;6.536;2023-09-30T11:49:45;21.98;;;3.53;;
58338;SDS011;68636;52.704;6.536;2023-09-30T11:52:25;27.75;;;3.40;;
58338;SDS011;68636;52.704;6.536;2023-09-30T11:54:51;28.35;;;3.67;;
58338;SDS011;68636;52.704;6.536;2023-09-30T11:57:18;14.30;;;3.03;;
58338;SDS011;68636;52.704;6.536;2023-09-30T11:59:45;21.00;;;2.70;;
58338;SDS011;68636;52.704;6.536;2023-09-30T12:02:12;20.23;;;2.78;;
58338;SDS011;68636;52.704;6.536;2023-09-30T12:04:40;16.70;;;2.78;;
58338;SDS011;68636;52.704;6.536;2023-09-30T12:07:06;19.80;;;2.80;;
58338;SDS011;68636;52.704;6.536;2023-09-30T12:09:33;21.90;;;3.35;;
58338;SDS011;68636;52.704;6.536;2023-09-30T12:12:02;15.18;;;2.22;;
58338;SDS011;68636;52.704;6.536;2023-09-30T12:14:28;18.30;;;4.10;;
58338;SDS011;68636;52.704;6.536;2023-09-30T12:16:56;24.38;;;3.33;;
58338;SDS011;68636;52.704;6.536;2023-09-30T12:19:22;17.10;;;2.63;;
58338;SDS011;68636;52.704;6.536;2023-09-30T12:21:48;20.47;;;3.03;;
58338;SDS011;68636;52.704;6.536;2023-09-30T12:24:15;18.38;;;2.17;;
58338;SDS011;68636;52.704;6.536;2023-09-30T12:26:45;23.35;;;2.60;;
58338;SDS011;68636;52.704;6.536;2023-09-30T12:29:15;23.65;;;2.63;;
58338;SDS011;68636;52.704;6.536;2023-09-30T12:31:43;12.70;;;2.65;;
58338;SDS011;68636;52.704;6.536;2023-09-30T12:34:09;18.05;;;2.30;;
58338;SDS011;68636;52.704;6.536;2023-09-30T12:36:35;16.90;;;2.97;;
58338;SDS011;68636;52.704;6.536;2023-09-30T12:39:01;15.55;;;2.72;;
58338;SDS011;68636;52.704;6.536;2023-09-30T12:41:36;17.88;;;3.53;;
58338;SDS011;68636;52.704;6.536;2023-09-30T12:44:02;13.35;;;2.60;;
58338;SDS011;68636;52.704;6.536;2023-09-30T12:46:28;22.40;;;3.25;;
58338;SDS011;68636;52.704;6.536;2023-09-30T12:48:54;17.88;;;2.97;;
58338;SDS011;68636;52.704;6.536;2023-09-30T12:51:20;16.85;;;3.50;;
58338;SDS011;68636;52.704;6.536;2023-09-30T12:53:46;18.33;;;3.03;;
58338;SDS011;68636;52.704;6.536;2023-09-30T12:56:12;16.10;;;2.10;;
58338;SDS011;68636;52.704;6.536;2023-09-30T12:58:38;21.48;;;2.85;;
58338;SDS011;68636;52.704;6.536;2023-09-30T13:01:05;18.90;;;2.75;;
58338;SDS011;68636;52.704;6.536;2023-09-30T13:03:31;23.25;;;3.40;;
58338;SDS011;68636;52.704;6.536;2023-09-30T13:05:57;21.60;;;3.47;;
58338;SDS011;68636;52.704;6.536;2023-09-30T13:08:23;20.95;;;3.35;;
58338;SDS011;68636;52.704;6.536;2023-09-30T13:10:49;11.88;;;2.30;;
58338;SDS011;68636;52.704;6.536;2023-09-30T13:13:17;15.60;;;2.60;;
58338;SDS011;68636;52.704;6.536;2023-09-30T13:15:43;16.65;;;2.95;;
58338;SDS011;68636;52.704;6.536;2023-09-30T13:18:09;16.25;;;2.80;;
58338;SDS011;68636;52.704;6.536;2023-09-30T13:20:35;21.10;;;2.72;;
58338;SDS011;68636;52.704;6.536;2023-09-30T13:23:01;16.25;;;2.50;;
58338;SDS011;68636;52.704;6.536;2023-09-30T13:25:28;18.92;;;2.80;;
58338;SDS011;68636;52.704;6.536;2023-09-30T13:30:21;13.73;;;2.55;;
58338;SDS011;68636;52.704;6.536;2023-09-30T13:32:48;24.17;;;2.83;;
58338;SDS011;68636;52.704;6.536;2023-09-30T13:35:14;18.15;;;2.88;;
58338;SDS011;68636;52.704;6.536;2023-09-30T13:37:40;15.13;;;3.08;;
58338;SDS011;68636;52.704;6.536;2023-09-30T13:40:06;20.70;;;2.85;;
58338;SDS011;68636;52.704;6.536;2023-09-30T13:42:36;25.65;;;2.90;;
58338;SDS011;68636;52.704;6.536;2023-09-30T13:45:03;18.90;;;2.72;;
58338;SDS011;68636;52.704;6.536;2023-09-30T13:47:29;18.17;;;2.72;;
58338;SDS011;68636;52.704;6.536;2023-09-30T13:49:55;17.73;;;2.53;;
58338;SDS011;68636;52.704;6.536;2023-09-30T13:52:21;19.73;;;2.85;;
58338;SDS011;68636;52.704;6.536;2023-09-30T13:54:47;17.27;;;2.65;;
58338;SDS011;68636;52.704;6.536;2023-09-30T13:57:13;16.98;;;2.50;;
58338;SDS011;68636;52.704;6.536;2023-09-30T13:59:39;20.75;;;2.60;;
58338;SDS011;68636;52.704;6.536;2023-09-30T14:02:07;21.48;;;2.92;;
58338;SDS011;68636;52.704;6.536;2023-09-30T14:04:33;15.48;;;2.47;;
58338;SDS011;68636;52.704;6.536;2023-09-30T14:07:02;15.43;;;2.50;;
58338;SDS011;68636;52.704;6.536;2023-09-30T14:09:28;19.30;;;3.60;;
58338;SDS011;68636;52.704;6.536;2023-09-30T14:11:54;19.83;;;3.03;;
58338;SDS011;68636;52.704;6.536;2023-09-30T14:14:20;18.65;;;2.97;;
58338;SDS011;68636;52.704;6.536;2023-09-30T14:16:47;20.25;;;3.72;;
58338;SDS011;68636;52.704;6.536;2023-09-30T14:19:13;21.88;;;3.25;;
58338;SDS011;68636;52.704;6.536;2023-09-30T14:21:42;18.98;;;3.28;;
58338;SDS011;68636;52.704;6.536;2023-09-30T14:24:08;11.80;;;2.05;;
58338;SDS011;68636;52.704;6.536;2023-09-30T14:26:34;18.13;;;2.38;;
58338;SDS011;68636;52.704;6.536;2023-09-30T14:31:27;23.13;;;3.60;;
58338;SDS011;68636;52.704;6.536;2023-09-30T14:33:53;10.10;;;1.55;;
58338;SDS011;68636;52.704;6.536;2023-09-30T14:36:19;20.00;;;3.65;;
58338;SDS011;68636;52.704;6.536;2023-09-30T14:38:45;12.50;;;2.10;;
58338;SDS011;68636;52.704;6.536;2023-09-30T14:41:12;17.33;;;3.28;;
58338;SDS011;68636;52.704;6.536;2023-09-30T14:43:38;14.88;;;2.80;;
58338;SDS011;68636;52.704;6.536;2023-09-30T14:46:05;30.55;;;6.13;;
58338;SDS011;68636;52.704;6.536;2023-09-30T14:48:31;18.95;;;3.58;;
58338;SDS011;68636;52.704;6.536;2023-09-30T14:50:57;20.10;;;2.40;;
58338;SDS011;68636;52.704;6.536;2023-09-30T14:53:23;15.18;;;2.58;;
58338;SDS011;68636;52.704;6.536;2023-09-30T14:55:49;15.25;;;2.25;;
58338;SDS011;68636;52.704;6.536;2023-09-30T14:58:16;14.05;;;2.60;;
58338;SDS011;68636;52.704;6.536;2023-09-30T15:00:42;16.58;;;3.92;;
58338;SDS011;68636;52.704;6.536;2023-09-30T15:03:08;15.57;;;3.10;;
58338;SDS011;68636;52.704;6.536;2023-09-30T15:08:01;16.80;;;2.45;;
58338;SDS011;68636;52.704;6.536;2023-09-30T15:10:27;16.42;;;3.15;;
58338;SDS011;68636;52.704;6.536;2023-09-30T15:12:54;22.08;;;2.60;;
58338;SDS011;68636;52.704;6.536;2023-09-30T15:15:20;14.73;;;3.42;;
58338;SDS011;68636;52.704;6.536;2023-09-30T15:17:46;15.52;;;2.38;;